メインページ
METAR-TAF:

METAR-TAF

空港 :

Cut Bank, モンタナ州, アメリカ合衆国

緯度: 48-36-30N, 経度: 112-22-34W, 海抜: 1175m

現時点の気象観測

当レポートは57分前の15:56(UTC)に作成
西/南西の風 24kt、最大33ktの突風を伴う
気温 19°C
湿度 37%
気圧 1005 hPa
視程: 16.1km
晴天

METAR: KCTB 191556Z AUTO 25024G33KT 10SM CLR 19/04 A2967 RMK AO2 PK WND 24034/1542 SLP022 T01940039

時間: 10:53 (16:53 UTC)

予報

当レポートは1時間53分前の15:00(UTC)に作成
予報は19日の 15時(UTC)から 20日の 12時(UTC)まで有効
西/南西の風 20kt、最大30ktの突風を伴う
視程: 10km
晴天
19日の 1800時(UTC)から
西の風 25kt、最大40ktの突風を伴う
視程: 10km
高度8000ftの雲はほとんどない
高度12000ftの雲は散在している
20日の 0300時(UTC)から
西の風 8kt
視程: 10km
高度8000ftの雲は散在している
高度10000ftの千切れ雲あり
近辺でにわか雨
確率 30%
20日の 03時(UTC)から 20日の 07時(UTC)まで
西の風 10kt、最大20ktの突風を伴う
視程: 8.0km
高度6000ftの千切れ雲あり, 積乱雲.
激しい雷雨, 雨
20日の 0900時(UTC)から
変向風 6kt
視程: 10km
高度10000ftの雲は散在している
高度15000ftの千切れ雲あり

TAF: KCTB 191500Z 1915/2012 25020G30KT P6SM SKC FM191800 28025G40KT P6SM FEW080 SCT120 FM200300 28008KT P6SM VCSH SCT080 BKN100 PROB30 2003/2007 28010G20KT 5SM TSRA BKN060CB FM200900 VRB06KT P6SM SCT100 BKN150

4,000以上の空港の気象観測と天気予報(METAR報とTAF報)

利用可能な観測所は地図上に黄色い丸と赤い丸で示す。

丸の上にカーソルを重ねると観測所名を参照できる。

次にクリックすると気象観測と天気予報を参照できる。

マップの切り替え:黒色「×」印の緑ボタンをクリックして拡大、「-」印の緑ボタンをクリックして縮小、緑色の三角印をクリックして隣りの地図に切り替え


METAR-TAF: